| time (UTC) | temp F | wind direction | speed MPH | gust MPH | rain 1hr in | rain 24hr in | rain mn in | humidity % | barometer mb |
| 20260831193019 | 58 | 201 | 17.0 | 22.0 | 0.00 | 0.00 | 0.00 | 91 | 1022.9 |
| 20260831191518 | 58 | 199 | 16.0 | 21.0 | 0.00 | 0.00 | 0.00 | 92 | 1022.8 |
| 20260831190019 | 58 | 199 | 16.0 | 21.0 | 0.00 | 0.00 | 0.00 | 91 | 1022.8 |
| 20260831184519 | 58 | 200 | 15.0 | 20.0 | 0.00 | 0.00 | 0.00 | 90 | 1022.7 |
| 20260831183018 | 58 | 200 | 15.0 | 20.0 | 0.00 | 0.00 | 0.00 | 88 | 1022.6 |
| 20260831181518 | 58 | 199 | 12.0 | 15.0 | 0.00 | 0.00 | 0.00 | 86 | 1022.6 |
| 20260831180019 | 59 | 205 | 13.0 | 21.0 | 0.00 | 0.00 | 0.00 | 82 | 1022.6 |
| 20260831173017 | 60 | 196 | 9.0 | 12.0 | 0.00 | 0.00 | 0.00 | 81 | 1022.6 |
| 20260831171518 | 61 | 193 | 10.0 | 13.0 | 0.00 | 0.00 | 0.00 | 81 | 1022.7 |
| 20260831170017 | 61 | 192 | 11.0 | 15.0 | 0.00 | 0.00 | 0.00 | 81 | 1022.7 |
| 20260831164518 | 61 | 190 | 11.0 | 15.0 | 0.00 | 0.00 | 0.00 | 79 | 1022.9 |
| 20260831163017 | 62 | 195 | 11.0 | 16.0 | 0.00 | 0.00 | 0.00 | 79 | 1023.1 |
| 20260831161517 | 62 | 195 | 11.0 | 15.0 | 0.00 | 0.00 | 0.00 | 78 | 1023.0 |
| 20260831160017 | 62 | 194 | 13.0 | 21.0 | 0.00 | 0.00 | 0.00 | 75 | 1023.1 |
| 20260831153016 | 63 | 196 | 12.0 | 19.0 | 0.00 | 0.00 | 0.00 | 76 | 1023.1 |
| 20260831151517 | 63 | 193 | 10.0 | 15.0 | 0.00 | 0.00 | 0.00 | 81 | 1023.6 |
| 20260831150020 | 63 | 203 | 13.0 | 19.0 | 0.00 | 0.00 | 0.00 | 69 | 1023.4 |
| 20260831144516 | 63 | 195 | 11.0 | 16.0 | 0.00 | 0.00 | 0.00 | 76 | 1023.2 |
| 20260831143016 | 62 | 184 | 11.0 | 20.0 | 0.00 | 0.00 | 0.00 | 80 | 1023.7 |
| 20260831141516 | 63 | 204 | 12.0 | 18.0 | 0.00 | 0.00 | 0.00 | 79 | 1023.5 |
| 20260831140016 | 62 | 186 | 13.0 | 20.0 | 0.00 | 0.00 | 0.00 | 73 | 1023.3 |
| 20260831134515 | 63 | 186 | 12.0 | 19.0 | 0.00 | 0.00 | 0.00 | 75 | 1023.2 |
| 20260831133016 | 62 | 183 | 12.0 | 21.0 | 0.00 | 0.00 | 0.00 | 77 | 1023.3 |
| 20260831131515 | 62 | 187 | 11.0 | 18.0 | 0.00 | 0.00 | 0.00 | 80 | 1023.5 |
| 20260831130016 | 62 | 179 | 10.0 | 17.0 | 0.00 | 0.00 | 0.00 | 82 | 1023.8 |
| 20260831124515 | 62 | 202 | 12.0 | 19.0 | 0.00 | 0.00 | 0.00 | 81 | 1023.8 |
| 20260831123015 | 62 | 207 | 12.0 | 18.0 | 0.00 | 0.00 | 0.00 | 83 | 1024.1 |
| 20260831121515 | 62 | 185 | 12.0 | 20.0 | 0.00 | 0.00 | 0.00 | 83 | 1024.2 |
| 20260831114515 | 61 | 178 | 11.0 | 22.0 | 0.00 | 0.00 | 0.00 | 84 | 1023.9 |
| 20260831113015 | 61 | 171 | 12.0 | 24.0 | 0.00 | 0.00 | 0.00 | 81 | 1023.9 |
| 20260831111515 | 61 | 187 | 11.0 | 22.0 | 0.00 | 0.00 | 0.00 | 79 | 1023.7 |
| 20260831110016 | 61 | 189 | 7.0 | 16.0 | 0.00 | 0.00 | 0.00 | 81 | 1023.7 |
| 20260831104514 | 61 | 199 | 9.0 | 17.0 | 0.00 | 0.00 | 0.00 | 81 | 1023.7 |
| 20260831103014 | 61 | 187 | 9.0 | 20.0 | 0.00 | 0.00 | 0.00 | 83 | 1023.6 |
| 20260831101514 | 60 | 193 | 11.0 | 16.0 | 0.00 | 0.00 | 0.00 | 85 | 1023.7 |
| 20260831100015 | 60 | 198 | 10.0 | 16.0 | 0.00 | 0.00 | 0.00 | 82 | 1023.6 |
| 20260831094514 | 60 | 196 | 10.0 | 17.0 | 0.00 | 0.00 | 0.00 | 84 | 1023.7 |
| 20260831091514 | 60 | 197 | 8.0 | 14.0 | 0.00 | 0.00 | 0.00 | 86 | 1023.9 |
| 20260831090014 | 60 | 188 | 8.0 | 15.0 | 0.00 | 0.00 | 0.00 | 86 | 1023.6 |
| 20260831084514 | 60 | 200 | 5.0 | 10.0 | 0.00 | 0.00 | 0.00 | 84 | 1023.5 |
| 20260831083013 | 59 | 204 | 6.0 | 12.0 | 0.00 | 0.00 | 0.00 | 85 | 1023.5 |
| 20260831081513 | 58 | 194 | 6.0 | 10.0 | 0.00 | 0.00 | 0.00 | 85 | 1023.4 |
| 20260831080013 | 58 | 189 | 6.0 | 10.0 | 0.00 | 0.00 | 0.00 | 86 | 1023.5 |
| 20260831074519 | 58 | 212 | 7.0 | 12.0 | 0.00 | 0.00 | 0.00 | 86 | 1023.3 |
| 20260831073019 | 57 | 206 | 6.0 | 8.0 | 0.00 | 0.00 | 0.00 | 88 | 1023.3 |
| 20260831071518 | 56 | 191 | 5.0 | 8.0 | 0.00 | 0.00 | 0.00 | 88 | 1023.2 |
| 20260831070018 | 57 | 193 | 6.0 | 8.0 | 0.00 | 0.00 | 0.00 | 85 | 1023.1 |
| 20260831064517 | 57 | 206 | 7.0 | 10.0 | 0.00 | 0.00 | 0.00 | 83 | 1023.1 |
| 20260831063018 | 57 | 207 | 7.0 | 11.0 | 0.00 | 0.00 | 0.00 | 77 | 1023.0 |
| 20260831061517 | 57 | 212 | 5.0 | 7.0 | 0.00 | 0.00 | 0.00 | 67 | 1022.8 |
| 20260831060019 | 58 | 212 | 3.0 | 4.0 | 0.00 | 0.00 | 0.00 | 68 | 1022.9 |
| 20260831054518 | 60 | 213 | 0.0 | 3.0 | 0.00 | 0.00 | 0.00 | 45 | 1022.5 |
| 20260831053018 | 60 | 212 | 0.0 | 2.0 | 0.00 | 0.00 | 0.00 | 45 | 1022.4 |
| 20260831051517 | 60 | 213 | 1.0 | 4.0 | 0.00 | 0.00 | 0.00 | 47 | 1022.2 |
| 20260831050018 | 59 | 213 | 4.0 | 5.0 | 0.00 | 0.00 | 0.00 | 56 | 1022.3 |
| 20260831044517 | 58 | 211 | 5.0 | 7.0 | 0.00 | 0.00 | 0.00 | 63 | 1022.3 |
| 20260831043017 | 57 | 209 | 5.0 | 7.0 | 0.00 | 0.00 | 0.00 | 69 | 1022.2 |
| 20260831040017 | 55 | 210 | 7.0 | 9.0 | 0.00 | 0.00 | 0.00 | 86 | 1022.6 |
| 20260831034516 | 56 | 215 | 6.0 | 8.0 | 0.00 | 0.00 | 0.00 | 83 | 1022.6 |
| 20260831033016 | 55 | 210 | 7.0 | 10.0 | 0.00 | 0.00 | 0.00 | 85 | 1022.7 |
| 20260831031516 | 56 | 206 | 5.0 | 6.0 | 0.00 | 0.00 | 0.00 | 79 | 1022.8 |
| 20260831030017 | 56 | 223 | 5.0 | 7.0 | 0.00 | 0.00 | 0.00 | 76 | 1022.9 |
| 20260831023016 | 56 | 210 | 7.0 | 9.0 | 0.00 | 0.00 | 0.00 | 83 | 1023.1 |
| 20260831021515 | 56 | 199 | 7.0 | 10.0 | 0.00 | 0.00 | 0.00 | 81 | 1023.1 |
| 20260831020016 | 56 | 189 | 6.0 | 8.0 | 0.00 | 0.00 | 0.00 | 78 | 1023.1 |
| 20260831011515 | 57 | 205 | 5.0 | 6.0 | 0.00 | 0.00 | 0.00 | 85 | 1023.3 |
| 20260831004515 | 56 | 197 | 3.0 | 5.0 | 0.00 | 0.00 | 0.00 | 86 | 1023.4 |
| 20260831003016 | 56 | 194 | 4.0 | 5.0 | 0.00 | 0.00 | 0.00 | 87 | 1023.6 |
| 20260831001514 | 57 | 190 | 4.0 | 7.0 | 0.00 | 0.00 | 0.00 | 86 | 1023.9 |
| 20260831000016 | 57 | 182 | 5.0 | 7.0 | 0.00 | 0.00 | 0.00 | 80 | 1023.6 |
| 20260830234514 | 58 | 182 | 5.0 | 7.0 | 0.00 | 0.00 | 0.00 | 79 | 1023.7 |
| 20260830233015 | 58 | 186 | 7.0 | 8.0 | 0.00 | 0.00 | 0.00 | 79 | 1023.8 |
| 20260830231514 | 58 | 175 | 6.0 | 7.0 | 0.00 | 0.00 | 0.00 | 80 | 1024.0 |
| 20260830230015 | 59 | 159 | 6.0 | 7.0 | 0.00 | 0.00 | 0.00 | 76 | 1023.8 |
| 20260830224514 | 59 | 188 | 4.0 | 6.0 | 0.00 | 0.00 | 0.00 | 75 | 1023.7 |
| 20260830223014 | 58 | 181 | 4.0 | 5.0 | 0.00 | 0.00 | 0.00 | 80 | 1024.0 |
| 20260830221514 | 57 | 178 | 2.0 | 5.0 | 0.00 | 0.00 | 0.00 | 89 | 1024.1 |
| 20260830220015 | 57 | 152 | 4.0 | 5.0 | 0.00 | 0.00 | 0.00 | 88 | 1024.2 |
| 20260830213014 | 57 | 141 | 4.0 | 5.0 | 0.00 | 0.00 | 0.00 | 89 | 1024.1 |
| 20260830210014 | 57 | 134 | 7.0 | 9.0 | 0.00 | 0.00 | 0.00 | 88 | 1024.2 |
| 20260830204513 | 58 | 120 | 8.0 | 10.0 | 0.00 | 0.00 | 0.00 | 88 | 1024.0 |
| 20260830203013 | 58 | 126 | 6.0 | 8.0 | 0.00 | 0.00 | 0.00 | 86 | 1024.0 |
| 20260830201513 | 58 | 119 | 3.0 | 4.0 | 0.00 | 0.00 | 0.00 | 74 | 1023.8 |
| 20260830200013 | 58 | 113 | 3.0 | 6.0 | 0.00 | 0.00 | 0.00 | 84 | 1023.8 |
| 20260830194513 | 58 | 116 | 3.0 | 4.0 | 0.00 | 0.00 | 0.00 | 86 | 1023.9 |